Time;durP1;ratioP1;P1;durP2;ratioP2;P2;SDS_P1;SDS_P2;PMS_P1;PMS_P2;Temp;Humidity;BMP_temperature;BMP_pressure;BME280_temperature;BME280_humidity;BME280_pressure;Samples;Min_cycle;Max_cycle;Signal;HPM_P1;HPM_P2
2021/11/03 00:01:12;;;;;;;7.10;6.90;;;19.10;99.90;;;;;;4972751;28;20945;-51
2021/11/03 00:03:39;;;;;;;7.07;6.87;;;19.10;99.90;;;;;;4972938;28;20520;-50
2021/11/03 00:06:06;;;;;;;6.03;5.93;;;19.10;99.90;;;;;;4972726;28;20451;-49
2021/11/03 00:08:33;;;;;;;6.30;6.20;;;19.10;99.90;;;;;;4972777;28;20452;-52
2021/11/03 00:11:00;;;;;;;7.03;6.73;;;19.10;99.90;;;;;;4972622;28;20448;-49
2021/11/03 00:13:29;;;;;;;6.80;6.60;;;19.10;99.90;;;;;;4972815;28;20447;-53
2021/11/03 00:15:58;;;;;;;6.07;5.97;;;19.00;99.90;;;;;;4972814;28;21052;-52
2021/11/03 00:18:25;;;;;;;6.23;6.13;;;19.10;99.90;;;;;;4972710;28;20444;-49
2021/11/03 00:20:52;;;;;;;6.90;6.63;;;19.10;99.90;;;;;;4972088;28;20843;-54
2021/11/03 00:23:19;;;;;;;7.37;7.17;;;19.10;99.90;;;;;;4972742;28;20454;-49
2021/11/03 00:25:47;;;;;;;7.03;6.83;;;19.10;99.90;;;;;;4972607;28;20451;-49
2021/11/03 00:28:15;;;;;;;6.83;6.73;;;19.00;99.90;;;;;;4972539;28;20471;-52
2021/11/03 00:30:44;;;;;;;6.57;6.47;;;19.00;99.90;;;;;;4972224;28;20455;-51
2021/11/03 00:33:10;;;;;;;6.70;6.50;;;19.00;99.90;;;;;;4972923;28;20452;-53
2021/11/03 00:35:37;;;;;;;6.67;6.47;;;19.00;99.90;;;;;;4972693;28;20447;-52
2021/11/03 00:38:04;;;;;;;7.20;7.00;;;19.00;99.90;;;;;;4972673;28;20476;-53
2021/11/03 00:40:31;;;;;;;6.80;6.60;;;19.00;99.90;;;;;;4972195;28;20487;-50
2021/11/03 00:42:58;;;;;;;7.20;7.00;;;18.90;99.90;;;;;;4970519;28;20457;-50
2021/11/03 00:45:25;;;;;;;6.70;6.50;;;18.90;99.90;;;;;;4972592;28;20450;-49
2021/11/03 00:47:53;;;;;;;7.40;7.10;;;18.90;99.90;;;;;;4972152;28;20468;-50
2021/11/03 00:50:20;;;;;;;7.00;6.80;;;18.90;99.90;;;;;;4974142;28;20530;-49
2021/11/03 00:52:47;;;;;;;7.10;6.90;;;18.90;99.90;;;;;;4976337;28;20455;-50
2021/11/03 00:55:14;;;;;;;7.47;7.27;;;18.90;99.90;;;;;;4976360;28;20458;-54
2021/11/03 00:57:41;;;;;;;7.13;6.93;;;18.80;99.90;;;;;;4975907;28;20524;-51
2021/11/03 01:00:10;;;;;;;6.93;6.83;;;18.80;99.90;;;;;;4975929;28;21030;-51
2021/11/03 01:02:37;;;;;;;6.87;6.70;;;18.90;99.90;;;;;;4975988;28;20949;-49
2021/11/03 01:05:07;;;;;;;7.90;7.60;;;18.80;99.90;;;;;;4976200;28;20817;-52
2021/11/03 01:07:34;;;;;;;6.90;6.70;;;18.90;99.90;;;;;;4975816;28;20479;-51
2021/11/03 01:10:00;;;;;;;7.33;7.13;;;18.80;99.90;;;;;;4975637;28;20447;-51
2021/11/03 01:12:27;;;;;;;7.03;6.83;;;18.80;99.90;;;;;;4975922;28;20455;-50
2021/11/03 01:14:54;;;;;;;6.50;6.40;;;18.80;99.90;;;;;;4975991;28;20568;-49
2021/11/03 01:17:20;;;;;;;7.03;6.93;;;18.80;99.90;;;;;;4975595;28;20475;-49
2021/11/03 01:19:47;;;;;;;6.63;6.47;;;18.80;99.90;;;;;;4975578;28;20486;-49
2021/11/03 01:22:15;;;;;;;7.30;7.10;;;18.80;99.90;;;;;;4975984;28;20444;-49
2021/11/03 01:24:42;;;;;;;7.10;6.90;;;18.70;99.90;;;;;;4975776;28;20448;-49
2021/11/03 01:27:08;;;;;;;7.00;6.90;;;18.70;99.90;;;;;;4975479;28;20534;-49
2021/11/03 01:29:35;;;;;;;7.30;7.10;;;18.70;99.90;;;;;;4975285;28;20444;-49
2021/11/03 01:32:02;;;;;;;8.33;7.83;;;18.70;99.90;;;;;;4975615;28;20473;-50
2021/11/03 01:34:28;;;;;;;7.23;7.03;;;18.70;99.90;;;;;;4975312;28;20455;-49
2021/11/03 01:36:55;;;;;;;6.90;6.70;;;18.70;99.90;;;;;;4975548;28;20470;-50
2021/11/03 01:39:23;;;;;;;7.13;6.93;;;18.70;99.90;;;;;;4975172;28;20463;-52
2021/11/03 01:41:50;;;;;;;7.63;7.43;;;18.60;99.90;;;;;;4975423;28;20450;-49
2021/11/03 01:44:18;;;;;;;6.43;6.33;;;18.60;99.90;;;;;;4975494;28;20486;-50
2021/11/03 01:46:48;;;;;;;6.83;6.73;;;18.70;99.90;;;;;;4974964;28;20476;-51
2021/11/03 01:49:18;;;;;;;7.53;7.30;;;18.60;99.90;;;;;;4975156;28;20459;-49
2021/11/03 01:51:48;;;;;;;6.63;6.53;;;18.60;99.90;;;;;;4975211;28;20454;-49
2021/11/03 01:54:18;;;;;;;7.20;7.00;;;18.60;99.90;;;;;;4975286;28;20825;-51
2021/11/03 01:56:47;;;;;;;7.20;7.07;;;18.60;99.90;;;;;;4974971;28;20853;-50
2021/11/03 01:59:17;;;;;;;6.70;6.60;;;18.60;99.90;;;;;;4974990;28;20459;-49
2021/11/03 02:01:44;;;;;;;6.93;6.73;;;18.50;99.90;;;;;;4974548;28;20810;-55
2021/11/03 02:04:11;;;;;;;6.77;6.57;;;18.50;99.90;;;;;;4974995;28;20467;-49
2021/11/03 02:06:38;;;;;;;7.33;7.13;;;18.60;99.90;;;;;;4974982;28;20499;-50
2021/11/03 02:09:06;;;;;;;7.47;7.27;;;18.50;99.90;;;;;;4974742;28;20448;-50
2021/11/03 02:11:32;;;;;;;6.60;6.50;;;18.50;99.90;;;;;;4974893;28;20440;-49
2021/11/03 02:14:03;;;;;;;7.30;7.10;;;18.50;99.90;;;;;;4974719;28;20447;-50
2021/11/03 02:16:31;;;;;;;5.83;5.73;;;18.50;99.90;;;;;;4975023;28;20464;-49
2021/11/03 02:18:58;;;;;;;5.90;5.80;;;18.50;99.90;;;;;;4974649;28;20451;-49
2021/11/03 02:21:35;;;;;;;6.20;6.10;;;18.50;99.90;;;;;;4974907;28;20516;-52
2021/11/03 02:24:08;;;;;;;6.33;6.13;;;18.50;99.90;;;;;;4974603;28;20452;-51
2021/11/03 02:26:43;;;;;;;6.37;6.17;;;18.50;99.90;;;;;;4996473;23;20502;-57
2021/11/03 02:29:12;;;;;;;6.30;6.10;;;18.50;99.90;;;;;;4947173;28;20854;-55
2021/11/03 02:31:41;;;;;;;6.57;6.37;;;18.50;99.90;;;;;;4955258;28;20441;-57
2021/11/03 02:34:10;;;;;;;6.23;6.13;;;18.50;99.90;;;;;;4954898;28;20452;-60
2021/11/03 02:36:51;;;;;;;6.37;6.17;;;18.40;99.90;;;;;;4955142;28;20460;-56
2021/11/03 02:39:22;;;;;;;5.83;5.73;;;18.40;99.90;;;;;;4955144;28;20445;-55
2021/11/03 02:41:50;;;;;;;5.93;5.83;;;18.40;99.90;;;;;;4955132;28;20532;-55
2021/11/03 02:44:17;;;;;;;6.03;5.93;;;18.50;99.90;;;;;;4954951;28;20596;-55
2021/11/03 02:46:44;;;;;;;6.17;6.07;;;18.40;99.90;;;;;;4954947;28;20551;-55
2021/11/03 02:49:11;;;;;;;6.20;6.10;;;18.40;99.90;;;;;;4954759;28;20448;-55
2021/11/03 02:51:40;;;;;;;5.90;5.80;;;18.40;99.90;;;;;;4954890;28;20440;-54
2021/11/03 02:54:10;;;;;;;6.20;6.10;;;18.40;99.90;;;;;;4954641;28;20456;-55
2021/11/03 02:56:41;;;;;;;6.37;6.27;;;18.40;99.90;;;;;;4954697;28;20452;-60
2021/11/03 02:59:11;;;;;;;6.57;6.47;;;18.40;99.90;;;;;;4954744;28;20445;-58
2021/11/03 03:01:41;;;;;;;6.77;6.67;;;18.40;99.90;;;;;;4954293;28;20488;-58
2021/11/03 03:04:09;;;;;;;6.83;6.67;;;18.40;99.90;;;;;;4954515;28;20457;-57
2021/11/03 03:06:36;;;;;;;6.90;6.70;;;18.40;99.90;;;;;;4954697;28;20457;-55
2021/11/03 03:09:05;;;;;;;6.37;6.27;;;18.40;99.90;;;;;;4954427;28;20460;-59
2021/11/03 03:11:35;;;;;;;8.30;8.00;;;18.40;99.90;;;;;;4954366;28;20445;-60
2021/11/03 03:14:02;;;;;;;7.40;7.20;;;18.40;99.90;;;;;;4953563;28;20457;-60
2021/11/03 03:16:30;;;;;;;7.30;7.17;;;18.40;99.90;;;;;;4954503;28;20459;-60
2021/11/03 03:18:57;;;;;;;7.20;7.00;;;18.40;99.90;;;;;;4954197;28;20457;-58
2021/11/03 03:21:26;;;;;;;7.13;6.93;;;18.40;99.90;;;;;;4954048;28;20986;-60
2021/11/03 03:23:52;;;;;;;6.87;6.77;;;18.30;99.90;;;;;;4954387;28;20456;-57
2021/11/03 03:26:22;;;;;;;7.07;6.93;;;18.30;99.90;;;;;;4954205;28;21031;-60
2021/11/03 03:28:49;;;;;;;7.17;7.00;;;18.30;99.90;;;;;;4954033;28;20810;-57
2021/11/03 03:31:16;;;;;;;7.00;6.90;;;18.30;99.90;;;;;;4953769;28;20449;-57
2021/11/03 03:33:46;;;;;;;7.37;7.17;;;18.30;99.90;;;;;;4953830;28;20459;-57
2021/11/03 03:36:13;;;;;;;6.83;6.73;;;18.20;99.90;;;;;;4954131;28;20488;-55
2021/11/03 03:38:39;;;;;;;7.50;7.30;;;18.30;99.90;;;;;;4953871;28;20473;-54
2021/11/03 03:41:07;;;;;;;6.93;6.83;;;18.30;99.90;;;;;;4953680;28;20485;-58
2021/11/03 03:43:33;;;;;;;7.50;7.30;;;18.30;99.90;;;;;;4954040;28;20453;-56
2021/11/03 03:46:00;;;;;;;7.53;7.33;;;18.30;99.90;;;;;;4954028;28;20447;-57
2021/11/03 03:48:27;;;;;;;7.37;7.27;;;18.20;99.90;;;;;;4953764;28;20473;-57
2021/11/03 03:50:55;;;;;;;6.97;6.77;;;18.20;99.90;;;;;;4953592;28;20449;-55
2021/11/03 03:53:22;;;;;;;7.10;6.90;;;18.20;99.90;;;;;;4953859;28;20452;-57
2021/11/03 03:55:49;;;;;;;7.47;7.27;;;18.20;99.90;;;;;;4953823;28;20457;-58
2021/11/03 03:58:17;;;;;;;7.20;7.10;;;18.20;99.90;;;;;;4953833;28;20476;-60
2021/11/03 04:00:45;;;;;;;8.00;7.80;;;18.20;99.90;;;;;;4953292;28;20480;-60
2021/11/03 04:03:12;;;;;;;7.53;7.33;;;18.20;99.90;;;;;;4953585;28;20453;-57
2021/11/03 04:05:39;;;;;;;7.40;7.20;;;18.20;99.90;;;;;;4953710;28;20511;-54
2021/11/03 04:08:07;;;;;;;7.87;7.67;;;18.20;99.90;;;;;;4953533;28;21048;-59
2021/11/03 04:10:34;;;;;;;7.90;7.60;;;18.10;99.90;;;;;;4953270;28;20452;-60
2021/11/03 04:13:00;;;;;;;7.10;6.90;;;18.20;99.90;;;;;;4953621;28;20507;-55
2021/11/03 04:15:27;;;;;;;7.80;7.60;;;18.20;99.90;;;;;;4953555;28;20819;-55
2021/11/03 04:17:54;;;;;;;7.23;7.03;;;18.10;99.90;;;;;;4953611;28;20844;-56
2021/11/03 04:20:21;;;;;;;7.53;7.33;;;18.10;99.90;;;;;;4953036;28;20503;-54
2021/11/03 04:22:48;;;;;;;7.40;7.20;;;18.20;99.90;;;;;;4953448;28;20452;-53
2021/11/03 04:25:16;;;;;;;8.10;7.90;;;18.20;99.90;;;;;;4953256;28;20464;-58
2021/11/03 04:27:43;;;;;;;7.10;7.00;;;18.20;99.90;;;;;;4953245;28;21084;-58
2021/11/03 04:30:12;;;;;;;8.30;8.10;;;18.20;99.90;;;;;;4953081;28;20456;-57
2021/11/03 04:32:39;;;;;;;7.57;7.40;;;18.10;99.90;;;;;;4953498;28;20942;-57
2021/11/03 04:35:07;;;;;;;8.03;7.83;;;18.10;99.90;;;;;;4953470;28;20453;-55
2021/11/03 04:37:33;;;;;;;8.17;7.97;;;18.10;99.90;;;;;;4953327;28;20475;-57
2021/11/03 04:40:00;;;;;;;7.87;7.67;;;18.10;99.90;;;;;;4952878;28;20803;-57
2021/11/03 04:42:28;;;;;;;7.93;7.73;;;18.10;99.90;;;;;;4953288;28;20464;-53
2021/11/03 04:44:55;;;;;;;8.70;8.50;;;18.10;99.90;;;;;;4953314;28;20456;-56
2021/11/03 04:47:22;;;;;;;8.20;8.00;;;18.10;99.90;;;;;;4953221;28;20472;-54
2021/11/03 04:49:48;;;;;;;8.40;8.20;;;18.10;99.90;;;;;;4952902;28;20958;-56
2021/11/03 04:52:15;;;;;;;7.97;7.77;;;18.10;99.90;;;;;;4952969;28;20793;-56
2021/11/03 04:54:42;;;;;;;7.83;7.63;;;18.10;99.90;;;;;;4953289;28;20445;-57
2021/11/03 04:57:09;;;;;;;8.10;7.90;;;18.00;99.90;;;;;;4953045;28;20480;-54
2021/11/03 04:59:37;;;;;;;8.90;8.70;;;18.00;99.90;;;;;;4952951;28;20475;-58
2021/11/03 05:02:04;;;;;;;7.30;7.10;;;18.10;99.90;;;;;;4952681;28;21017;-53
2021/11/03 05:04:31;;;;;;;8.60;8.40;;;18.10;99.90;;;;;;4953157;28;20445;-57
2021/11/03 05:06:57;;;;;;;8.47;8.27;;;18.10;99.90;;;;;;4952990;28;20477;-56
2021/11/03 05:09:24;;;;;;;9.10;8.60;;;18.00;99.90;;;;;;4952957;28;20826;-56
2021/11/03 05:11:51;;;;;;;8.40;8.20;;;18.00;99.90;;;;;;4952824;28;20459;-49
2021/11/03 05:14:18;;;;;;;8.43;8.23;;;18.00;99.90;;;;;;4952882;28;20766;-53
2021/11/03 05:16:46;;;;;;;8.60;8.40;;;18.10;99.90;;;;;;4953066;28;20476;-55
2021/11/03 05:19:20;;;;;;;9.20;8.90;;;18.20;99.90;;;;;;4948739;28;20917;-52
2021/11/03 05:21:51;;;;;;;8.63;8.43;;;19.10;99.90;;;;;;4940409;28;20591;-55
2021/11/03 05:24:20;;;;;;;9.83;9.60;;;20.00;99.90;;;;;;4939908;29;20453;-56
2021/11/03 05:26:47;;;;;;;8.93;8.73;;;20.60;99.90;;;;;;4941230;28;20502;-61
2021/11/03 05:29:17;;;;;;;9.07;8.87;;;21.30;99.90;;;;;;4941075;28;20461;-58
2021/11/03 05:31:47;;;;;;;9.80;9.60;;;22.10;99.90;;;;;;4941489;28;20496;-55
2021/11/03 05:34:14;;;;;;;10.30;10.00;;;22.40;99.40;;;;;;4941699;28;20950;-58
2021/11/03 05:36:41;;;;;;;10.43;10.13;;;22.60;98.70;;;;;;4942362;28;20476;-61
2021/11/03 05:39:10;;;;;;;10.60;10.30;;;22.80;97.70;;;;;;4944267;28;20464;-57
2021/11/03 05:41:38;;;;;;;10.53;10.23;;;22.90;97.10;;;;;;4944532;28;20866;-54
2021/11/03 05:44:06;;;;;;;11.20;10.60;;;23.20;96.20;;;;;;4945047;28;20536;-61
2021/11/03 05:46:36;;;;;;;10.93;10.63;;;23.30;95.30;;;;;;4944547;28;20957;-57
2021/11/03 05:49:12;;;;;;;10.73;10.43;;;23.40;94.70;;;;;;4944394;28;20456;-55
2021/11/03 05:51:39;;;;;;;10.57;10.27;;;23.40;94.30;;;;;;4944486;28;20470;-53
2021/11/03 05:54:06;;;;;;;11.90;11.60;;;23.30;94.10;;;;;;4944378;28;20452;-56
2021/11/03 05:56:35;;;;;;;11.03;10.73;;;23.30;93.80;;;;;;4944165;28;20452;-58
2021/11/03 05:59:03;;;;;;;11.43;11.10;;;23.30;93.70;;;;;;4944402;28;20871;-55
2021/11/03 06:01:29;;;;;;;12.57;12.17;;;23.20;93.80;;;;;;4944211;28;20496;-54
2021/11/03 06:03:56;;;;;;;12.63;12.23;;;23.20;93.60;;;;;;4944330;28;20464;-53
2021/11/03 06:06:25;;;;;;;11.57;11.27;;;23.10;93.70;;;;;;4944014;28;20448;-51
2021/11/03 06:08:53;;;;;;;12.27;11.80;;;23.00;93.70;;;;;;4943660;28;21215;-54
2021/11/03 06:11:24;;;;;;;12.40;12.00;;;22.90;93.90;;;;;;4943893;28;20525;-54
2021/11/03 06:13:52;;;;;;;11.60;11.30;;;22.90;94.30;;;;;;4944034;28;20452;-55
2021/11/03 06:16:20;;;;;;;10.83;10.53;;;22.80;94.10;;;;;;4943766;28;21041;-57
2021/11/03 06:18:47;;;;;;;11.10;10.80;;;22.90;94.20;;;;;;4943459;28;20660;-55
2021/11/03 06:21:16;;;;;;;11.40;11.10;;;22.90;94.10;;;;;;4943642;28;20990;-53
2021/11/03 06:23:45;;;;;;;11.30;10.97;;;22.90;93.90;;;;;;4943416;28;20527;-59
2021/11/03 06:26:14;;;;;;;12.00;11.70;;;22.80;93.90;;;;;;4943685;28;20467;-58
2021/11/03 06:28:42;;;;;;;11.87;11.53;;;22.70;94.20;;;;;;4943047;28;20488;-57
2021/11/03 06:31:09;;;;;;;11.57;11.27;;;22.60;94.50;;;;;;4943761;28;20481;-54
2021/11/03 06:33:37;;;;;;;11.40;11.10;;;22.50;94.70;;;;;;4943648;28;21160;-55
2021/11/03 06:36:07;;;;;;;11.73;11.43;;;22.40;94.80;;;;;;4943494;28;20464;-55
2021/11/03 06:38:34;;;;;;;10.53;10.33;;;22.30;95.00;;;;;;4942943;28;20478;-57
2021/11/03 06:41:04;;;;;;;11.27;10.97;;;22.30;95.40;;;;;;4943033;28;20854;-56
2021/11/03 06:43:32;;;;;;;10.90;10.60;;;22.20;95.40;;;;;;4943556;28;20453;-53
2021/11/03 06:45:59;;;;;;;10.80;10.50;;;22.20;95.60;;;;;;4943295;28;20532;-58
2021/11/03 06:48:27;;;;;;;11.63;11.33;;;22.10;95.70;;;;;;4942864;28;20788;-58
2021/11/03 06:50:54;;;;;;;11.20;10.90;;;22.00;95.90;;;;;;4924098;29;20458;-55
2021/11/03 06:53:24;;;;;;;11.60;11.20;;;22.00;96.10;;;;;;4923938;29;20453;-58
2021/11/03 06:55:52;;;;;;;11.70;11.30;;;21.90;96.10;;;;;;4924266;29;20564;-56
2021/11/03 06:58:21;;;;;;;11.77;11.47;;;21.90;96.30;;;;;;4923993;29;20478;-59
2021/11/03 07:00:51;;;;;;;11.00;10.70;;;21.80;96.50;;;;;;4941843;29;20541;-58
2021/11/03 07:03:21;;;;;;;10.90;10.60;;;21.80;96.90;;;;;;4943037;28;20547;-58
2021/11/03 07:05:48;;;;;;;11.47;11.07;;;21.80;96.70;;;;;;4942918;28;20452;-60
2021/11/03 07:08:16;;;;;;;12.20;11.80;;;21.70;96.70;;;;;;4942787;28;20476;-60
2021/11/03 07:10:45;;;;;;;11.73;11.43;;;21.60;97.00;;;;;;4942951;28;21014;-60
2021/11/03 07:13:14;;;;;;;11.03;10.73;;;21.60;97.10;;;;;;4942660;28;20472;-60
2021/11/03 07:15:43;;;;;;;11.87;11.57;;;21.60;97.30;;;;;;4942955;28;20453;-61
2021/11/03 07:18:10;;;;;;;11.23;10.93;;;21.50;97.50;;;;;;4942607;28;20473;-55
2021/11/03 07:20:38;;;;;;;10.70;10.40;;;21.50;98.00;;;;;;4942562;28;20476;-58
2021/11/03 07:23:05;;;;;;;11.00;10.70;;;21.50;97.90;;;;;;4942660;28;20571;-48
2021/11/03 07:25:32;;;;;;;10.87;10.57;;;21.40;97.90;;;;;;4942580;28;20579;-61
2021/11/03 07:27:59;;;;;;;11.30;11.00;;;21.40;98.20;;;;;;4942004;28;20573;-54
2021/11/03 07:30:29;;;;;;;11.30;11.00;;;21.30;98.10;;;;;;4942930;28;20547;-53
2021/11/03 07:32:57;;;;;;;11.30;11.00;;;21.40;98.20;;;;;;4942789;28;20810;-53
2021/11/03 07:35:24;;;;;;;11.20;10.90;;;21.30;98.20;;;;;;4942612;28;20467;-55
2021/11/03 07:37:52;;;;;;;11.83;11.53;;;21.30;98.30;;;;;;4942704;28;20472;-55
2021/11/03 07:40:22;;;;;;;11.87;11.47;;;21.30;98.30;;;;;;4942415;28;20915;-55
2021/11/03 07:42:49;;;;;;;11.10;10.80;;;21.30;98.40;;;;;;4942366;28;20484;-53
2021/11/03 07:45:16;;;;;;;11.37;11.07;;;21.20;98.70;;;;;;4942246;28;20954;-54
2021/11/03 07:47:44;;;;;;;11.97;11.57;;;21.10;98.90;;;;;;4942355;28;20465;-57
2021/11/03 07:50:16;;;;;;;11.50;11.20;;;21.10;99.10;;;;;;4941621;28;20456;-53
2021/11/03 07:52:42;;;;;;;11.13;10.90;;;21.00;99.40;;;;;;4942102;28;20449;-52
2021/11/03 07:55:09;;;;;;;11.37;11.07;;;20.90;99.70;;;;;;4942087;28;20455;-55
2021/11/03 07:57:36;;;;;;;12.00;11.70;;;20.90;99.80;;;;;;4942161;28;20469;-51
2021/11/03 08:00:05;;;;;;;11.70;11.40;;;20.90;99.90;;;;;;4941383;28;20449;-53
2021/11/03 08:02:31;;;;;;;10.87;10.60;;;20.90;99.90;;;;;;4941987;28;20494;-57
2021/11/03 08:04:58;;;;;;;11.50;11.20;;;20.80;99.90;;;;;;4942127;28;20475;-57
2021/11/03 08:07:26;;;;;;;11.70;11.40;;;20.80;99.90;;;;;;4941682;28;20476;-51
2021/11/03 08:09:53;;;;;;;11.60;11.30;;;20.80;99.90;;;;;;4941743;28;20461;-53
2021/11/03 08:12:20;;;;;;;11.90;11.57;;;20.70;99.90;;;;;;4942037;28;20772;-52
2021/11/03 08:14:47;;;;;;;11.20;10.90;;;20.70;99.90;;;;;;4942128;28;20488;-52
2021/11/03 08:17:16;;;;;;;11.17;10.87;;;20.70;99.90;;;;;;4941975;28;20486;-55
2021/11/03 08:19:50;;;;;;;11.03;10.63;;;20.70;99.90;;;;;;4941756;28;20891;-54
2021/11/03 08:22:21;;;;;;;12.33;11.93;;;20.60;99.90;;;;;;4941701;28;20580;-48
2021/11/03 08:24:49;;;;;;;11.47;11.17;;;20.50;99.90;;;;;;4941855;28;20572;-47
2021/11/03 08:27:17;;;;;;;10.83;10.53;;;20.60;99.90;;;;;;4957845;23;20874;-56
2021/11/03 08:29:44;;;;;;;10.87;10.57;;;20.90;99.90;;;;;;4935734;28;20923;-52
2021/11/03 08:32:14;;;;;;;11.50;11.20;;;21.70;99.90;;;;;;4922687;29;20530;-54
2021/11/03 08:34:42;;;;;;;11.00;10.70;;;22.10;98.80;;;;;;4922429;29;20826;-54
2021/11/03 08:37:13;;;;;;;12.07;11.77;;;22.60;98.10;;;;;;4922232;29;20473;-52
2021/11/03 08:39:42;;;;;;;13.30;12.90;;;23.40;96.40;;;;;;4933715;29;20452;-53
2021/11/03 08:42:10;;;;;;;13.43;13.03;;;24.30;93.70;;;;;;4941484;28;20519;-52
2021/11/03 08:44:40;;;;;;;12.30;12.00;;;24.70;91.80;;;;;;4941506;28;20905;-53
2021/11/03 08:47:09;;;;;;;11.67;11.37;;;24.80;90.70;;;;;;4941314;28;20535;-55
2021/11/03 08:49:36;;;;;;;12.07;11.77;;;24.80;89.50;;;;;;4941626;28;20456;-55
2021/11/03 08:52:04;;;;;;;12.57;11.97;;;24.90;86.80;;;;;;4941764;28;20456;-57
2021/11/03 08:54:32;;;;;;;11.60;11.30;;;24.90;86.30;;;;;;4941698;28;20820;-61
2021/11/03 08:56:59;;;;;;;11.93;11.53;;;25.00;85.80;;;;;;4941676;28;21115;-54
2021/11/03 08:59:27;;;;;;;12.07;11.77;;;24.90;84.90;;;;;;4941190;28;20452;-50
2021/11/03 09:01:54;;;;;;;11.80;11.50;;;24.90;84.60;;;;;;4941288;28;20527;-56
2021/11/03 09:04:22;;;;;;;11.90;11.60;;;24.90;84.70;;;;;;4941288;28;20453;-56
2021/11/03 09:06:49;;;;;;;11.60;11.30;;;24.90;84.30;;;;;;4940911;28;20468;-55
2021/11/03 09:09:16;;;;;;;12.43;12.03;;;24.80;84.00;;;;;;4941343;28;20947;-50
2021/11/03 09:11:46;;;;;;;12.07;11.77;;;24.80;84.10;;;;;;4942364;28;21055;-52
2021/11/03 09:14:13;;;;;;;12.50;12.20;;;25.00;83.90;;;;;;4944943;28;21041;-49
2021/11/03 09:16:41;;;;;;;11.87;11.57;;;25.50;81.90;;;;;;4944871;28;20465;-52
2021/11/03 09:19:07;;;;;;;12.90;12.50;;;25.80;79.20;;;;;;4945263;28;20457;-55
2021/11/03 09:21:34;;;;;;;12.77;12.40;;;25.80;79.20;;;;;;4944742;28;20456;-53
2021/11/03 09:24:01;;;;;;;14.20;13.60;;;25.90;77.60;;;;;;4944987;28;20459;-52
2021/11/03 09:26:27;;;;;;;13.37;12.87;;;25.90;77.00;;;;;;4945059;28;20448;-54
2021/11/03 09:28:58;;;;;;;13.83;13.30;;;25.80;76.40;;;;;;4944587;28;21025;-50
2021/11/03 09:31:25;;;;;;;15.57;14.67;;;25.70;76.70;;;;;;4944763;28;20448;-50
2021/11/03 09:33:53;;;;;;;19.50;18.00;;;25.70;76.90;;;;;;4944763;28;20448;-55
2021/11/03 09:36:22;;;;;;;18.03;16.70;;;26.10;76.10;;;;;;4944278;28;20453;-54
2021/11/03 09:38:50;;;;;;;17.67;16.47;;;26.50;74.40;;;;;;4944421;28;21099;-50
2021/11/03 09:41:23;;;;;;;18.93;17.30;;;26.80;72.10;;;;;;4944402;28;20463;-52
2021/11/03 09:43:54;;;;;;;17.90;16.60;;;26.70;71.20;;;;;;4944487;28;20835;-55
2021/11/03 09:46:25;;;;;;;16.37;15.57;;;26.60;71.00;;;;;;4944281;28;20460;-52
2021/11/03 09:48:59;;;;;;;15.33;14.43;;;26.50;70.60;;;;;;4944187;28;20476;-54
2021/11/03 09:51:30;;;;;;;15.53;14.70;;;26.50;70.40;;;;;;4944606;28;20452;-53
2021/11/03 09:54:00;;;;;;;16.40;15.53;;;26.50;70.40;;;;;;4944509;28;20813;-54
2021/11/03 09:56:38;;;;;;;15.30;14.47;;;26.40;70.30;;;;;;4944291;28;20452;-53
2021/11/03 09:59:27;;;;;;;15.57;14.67;;;26.30;70.40;;;;;;4944133;28;20479;-54
2021/11/03 10:02:03;;;;;;;15.00;14.40;;;26.30;70.70;;;;;;4943958;28;20457;-53
2021/11/03 10:04:50;;;;;;;17.97;16.90;;;26.70;70.20;;;;;;4944009;28;20457;-51
2021/11/03 10:07:27;;;;;;;25.00;22.50;;;27.10;68.40;;;;;;4943891;28;20476;-54
2021/11/03 10:09:53;;;;;;;44.37;32.10;;;27.10;67.40;;;;;;4943888;28;20484;-52
2021/11/03 10:12:20;;;;;;;27.07;24.43;;;27.10;67.10;;;;;;4943968;28;20445;-50
2021/11/03 10:14:47;;;;;;;30.10;26.87;;;27.00;67.00;;;;;;4943713;28;20453;-53
2021/11/03 10:17:23;;;;;;;27.50;22.47;;;27.10;66.60;;;;;;4943539;28;20484;-55
2021/11/03 10:19:54;;;;;;;26.37;23.50;;;27.00;66.40;;;;;;4943707;28;20544;-52
2021/11/03 10:22:35;;;;;;;27.13;24.60;;;27.00;66.30;;;;;;4943243;28;20570;-52
2021/11/03 10:25:18;;;;;;;24.13;21.73;;;26.90;66.20;;;;;;4943810;28;20456;-51
2021/11/03 10:27:50;;;;;;;24.13;22.03;;;27.00;66.10;;;;;;4943298;28;20833;-52
2021/11/03 10:30:26;;;;;;;23.17;21.17;;;26.80;65.90;;;;;;4943380;28;21203;-52
2021/11/03 10:32:54;;;;;;;22.53;20.50;;;26.80;66.00;;;;;;4943469;28;20599;-50
2021/11/03 10:35:29;;;;;;;19.67;17.90;;;26.70;65.90;;;;;;4943314;28;20914;-50
2021/11/03 10:38:04;;;;;;;18.87;17.07;;;26.80;65.80;;;;;;4943037;28;20783;-51
2021/11/03 10:40:43;;;;;;;22.00;17.83;;;27.20;64.50;;;;;;4943278;28;20452;-54
2021/11/03 10:43:28;;;;;;;18.83;17.20;;;27.30;61.20;;;;;;4943257;28;20484;-50
2021/11/03 10:46:07;;;;;;;19.27;17.77;;;27.30;62.30;;;;;;4943281;28;20464;-52
2021/11/03 10:48:34;;;;;;;18.83;17.43;;;27.20;62.90;;;;;;4942759;28;20575;-58
2021/11/03 10:51:14;;;;;;;19.07;17.47;;;27.20;63.70;;;;;;4943195;28;20457;-56
2021/11/03 10:54:02;;;;;;;19.60;17.90;;;27.00;66.50;;;;;;4943294;28;20456;-52
2021/11/03 10:56:33;;;;;;;19.43;18.20;;;26.90;68.50;;;;;;4944264;28;20460;-58
2021/11/03 10:59:04;;;;;;;17.53;16.30;;;26.90;69.50;;;;;;4944502;28;20510;-58
2021/11/03 11:01:38;;;;;;;18.47;17.27;;;26.90;69.40;;;;;;4943749;28;21020;-56
2021/11/03 11:04:13;;;;;;;17.93;16.57;;;26.80;69.70;;;;;;4942868;28;20514;-56
2021/11/03 11:06:46;;;;;;;17.90;16.80;;;26.70;69.10;;;;;;4942807;28;20458;-57
2021/11/03 11:09:24;;;;;;;16.57;15.23;;;26.70;70.00;;;;;;4934742;29;20459;-54
2021/11/03 11:11:57;;;;;;;17.77;16.37;;;27.10;69.30;;;;;;4942911;28;20575;-54
2021/11/03 11:14:26;;;;;;;16.37;15.20;;;27.40;67.40;;;;;;4942714;28;20455;-56
2021/11/03 11:16:58;;;;;;;16.43;15.53;;;27.50;66.00;;;;;;4942649;28;20460;-58
2021/11/03 11:19:35;;;;;;;18.33;17.13;;;27.40;65.80;;;;;;4923441;29;20464;-59
2021/11/03 11:22:27;;;;;;;16.40;15.50;;;27.40;65.70;;;;;;4923713;29;20565;-53
2021/11/03 11:25:01;;;;;;;16.83;15.67;;;27.30;65.50;;;;;;4942303;29;20537;-59
2021/11/03 11:27:32;;;;;;;16.50;15.33;;;27.20;65.40;;;;;;4942648;28;20836;-50
2021/11/03 11:30:11;;;;;;;16.93;15.73;;;27.10;66.10;;;;;;4941991;28;20468;-51
2021/11/03 11:32:49;;;;;;;16.43;15.60;;;27.00;65.80;;;;;;4942314;28;21254;-61
2021/11/03 11:35:21;;;;;;;16.93;16.03;;;27.00;65.80;;;;;;4942126;28;21157;-54
2021/11/03 11:38:02;;;;;;;16.30;15.30;;;26.90;66.10;;;;;;4942422;28;20468;-52
2021/11/03 11:40:41;;;;;;;15.77;14.93;;;26.80;66.20;;;;;;4942293;28;20452;-54
2021/11/03 11:43:16;;;;;;;15.33;14.63;;;26.80;66.60;;;;;;4923231;29;20500;-53
2021/11/03 11:45:44;;;;;;;20.00;18.80;;;27.10;66.50;;;;;;4923303;29;20468;-47
2021/11/03 11:48:22;;;;;;;17.37;16.40;;;27.50;64.60;;;;;;4923210;29;20484;-51
2021/11/03 11:50:53;;;;;;;18.00;16.80;;;27.60;63.70;;;;;;4922836;29;20453;-49
2021/11/03 11:53:29;;;;;;;16.90;16.00;;;27.50;63.50;;;;;;4927007;29;20448;-52
2021/11/03 11:56:16;;;;;;;16.80;15.90;;;27.50;63.60;;;;;;4942077;28;20467;-51
2021/11/03 11:58:44;;;;;;;15.67;14.60;;;27.40;63.30;;;;;;4941803;28;20473;-46
2021/11/03 12:01:28;;;;;;;16.80;15.60;;;27.30;63.60;;;;;;4941972;28;20456;-52
2021/11/03 12:04:37;;;;;;;15.50;14.80;;;27.20;63.80;;;;;;4941933;28;20499;-51
2021/11/03 12:07:23;;;;;;;14.73;13.83;;;27.10;64.10;;;;;;4881544;29;20467;-49
2021/11/03 12:10:29;;;;;;;15.50;14.80;;;27.00;64.30;;;;;;4881928;29;20469;-55
2021/11/03 12:13:30;;;;;;;15.50;14.70;;;26.90;64.70;;;;;;4894418;29;20537;-50
2021/11/03 12:16:30;;;;;;;16.13;15.13;;;27.40;64.10;;;;;;4941793;28;20615;-49
2021/11/03 12:19:00;;;;;;;15.63;14.93;;;27.60;62.50;;;;;;4941520;28;20487;-54
2021/11/03 12:21:58;;;;;;;14.53;13.93;;;27.50;62.20;;;;;;4941969;28;20528;-52
2021/11/03 12:24:41;;;;;;;15.13;14.53;;;27.50;62.20;;;;;;4941719;28;20848;-51
2021/11/03 12:27:34;;;;;;;15.30;14.70;;;27.40;62.00;;;;;;4941638;28;20472;-48
2021/11/03 12:30:24;;;;;;;16.00;15.30;;;27.40;62.30;;;;;;4941222;28;21032;-50
2021/11/03 12:33:01;;;;;;;15.50;14.70;;;27.30;62.20;;;;;;4941628;28;20448;-50
2021/11/03 12:35:59;;;;;;;14.57;13.77;;;27.20;62.40;;;;;;4941593;28;20887;-48
2021/11/03 12:38:53;;;;;;;15.23;14.47;;;27.10;62.60;;;;;;4941356;28;20476;-51
2021/11/03 12:41:30;;;;;;;15.10;14.40;;;27.00;63.00;;;;;;4941697;28;20792;-52
2021/11/03 12:44:02;;;;;;;15.37;14.57;;;26.90;63.30;;;;;;4922407;29;20494;-54
2021/11/03 12:46:31;;;;;;;13.40;12.80;;;26.90;63.60;;;;;;4924912;29;20496;-51
2021/11/03 12:48:59;;;;;;;15.43;14.63;;;27.30;63.80;;;;;;4926021;29;20544;-48
2021/11/03 12:51:28;;;;;;;13.77;13.07;;;27.80;61.80;;;;;;4926233;29;20548;-52